AIC27M VOBL-LSZH
Flight info
| Callsign | AIC27M |
|---|---|
| Flight time | N/A |
| Altitude | 34000 |
| Route | OPAMO7B OPAMO W56 AGELA G208 BBB B342 EXOLU M638 KARKU/N0492F360 M638 IGANU P518 PARET G208 KEBUD L124 SODOK L713 PEGOS T216 DAR/N0491F280 G208 ROVAD/N0483F360 Y11 IKA/N0479F380 A647 RUS R661 MIVAK M715 ZAJ/N0484F280 G208 GETOB/N0482F380 G208 OTENA L124 TUDNU G781 BONAM UT366 VAN UT367 ESEPO UL852 NEGEM Q6 ERDOM Y520 UTEKA/N0476F400 DCT TUVAR DCT PODET DCT DEGUM DCT GEDSO/N0487F300 Z408 NIGEB |
| Aircraft | B77L/H-SDE1E2E3FGHIJ2J3J4J5M1RWXY/LB1D1 |
Departure
| Time | N/A |
|---|---|
| Airport | Kempegowda International Airport Bengaluru (VOBL) |
Arrival
| Time | 2026-05-05 20:19 |
|---|---|
| Airport | Zürich Airport (LSZH) |
| Time | Latitude | Longitude | Altitude | Speed | Heading |
|---|---|---|---|---|---|
| 2026-05-05 19:36 | 47.08949 | 11.09827 | 33903 ft | 353 kts | 272° |
| 2026-05-05 19:36 | 47.09499 | 11.06224 | 33923 ft | 372 kts | 282° |
| 2026-05-05 19:36 | 47.10479 | 11.02600 | 33871 ft | 392 kts | 290° |
| 2026-05-05 19:36 | 47.11779 | 10.99123 | 33903 ft | 406 kts | 293° |
| 2026-05-05 19:37 | 47.13226 | 10.95483 | 33897 ft | 419 kts | 294° |
| 2026-05-05 19:37 | 47.14739 | 10.91745 | 33881 ft | 432 kts | 294° |
| 2026-05-05 19:37 | 47.16295 | 10.87900 | 33875 ft | 442 kts | 294° |
| 2026-05-05 19:38 | 47.19471 | 10.79974 | 33884 ft | 457 kts | 294° |
| 2026-05-05 19:38 | 47.22700 | 10.71835 | 33862 ft | 462 kts | 293° |
| 2026-05-05 19:39 | 47.25911 | 10.63666 | 33861 ft | 461 kts | 293° |
| 2026-05-05 19:39 | 47.29088 | 10.55542 | 33849 ft | 460 kts | 293° |
| 2026-05-05 19:40 | 47.32250 | 10.47437 | 33542 ft | 449 kts | 293° |
| 2026-05-05 19:40 | 47.33799 | 10.43464 | 32875 ft | 446 kts | 292° |
| 2026-05-05 19:40 | 47.35345 | 10.39479 | 31843 ft | 448 kts | 293° |
| 2026-05-05 19:40 | 47.36914 | 10.35415 | 30442 ft | 462 kts | 294° |
| 2026-05-05 19:41 | 47.38516 | 10.31260 | 29270 ft | 467 kts | 294° |
| 2026-05-05 19:41 | 47.40119 | 10.27114 | 28584 ft | 463 kts | 294° |
| 2026-05-05 19:41 | 47.41705 | 10.23018 | 28046 ft | 456 kts | 294° |
| 2026-05-05 19:41 | 47.43270 | 10.18973 | 27495 ft | 451 kts | 294° |
| 2026-05-05 19:42 | 47.44815 | 10.14965 | 26933 ft | 447 kts | 294° |
| 2026-05-05 19:42 | 47.46347 | 10.10981 | 26362 ft | 444 kts | 294° |
| 2026-05-05 19:42 | 47.47869 | 10.07013 | 25786 ft | 442 kts | 294° |
| 2026-05-05 19:42 | 47.49378 | 10.03072 | 25241 ft | 439 kts | 295° |
| 2026-05-05 19:43 | 47.50843 | 9.99238 | 24582 ft | 440 kts | 295° |
| 2026-05-05 19:43 | 47.52341 | 9.95315 | 24082 ft | 435 kts | 295° |
| 2026-05-05 19:43 | 47.53799 | 9.91500 | 23537 ft | 430 kts | 295° |
| 2026-05-05 19:43 | 47.55266 | 9.87652 | 22844 ft | 427 kts | 295° |
| 2026-05-05 19:44 | 47.56720 | 9.83828 | 22165 ft | 424 kts | 295° |
| 2026-05-05 19:44 | 47.58161 | 9.80036 | 21545 ft | 419 kts | 295° |
| 2026-05-05 19:44 | 47.59582 | 9.76287 | 20933 ft | 415 kts | 295° |
| 2026-05-05 19:44 | 47.60991 | 9.72565 | 20285 ft | 413 kts | 296° |
| 2026-05-05 19:45 | 47.62395 | 9.68852 | 19684 ft | 410 kts | 296° |
| 2026-05-05 19:45 | 47.63784 | 9.65176 | 19110 ft | 407 kts | 296° |
| 2026-05-05 19:45 | 47.65161 | 9.61523 | 18551 ft | 404 kts | 296° |
| 2026-05-05 19:45 | 47.66530 | 9.57890 | 18006 ft | 401 kts | 296° |
| 2026-05-05 19:46 | 47.67882 | 9.54298 | 17424 ft | 396 kts | 296° |
| 2026-05-05 19:46 | 47.69217 | 9.50747 | 17030 ft | 393 kts | 296° |
| 2026-05-05 19:46 | 47.70307 | 9.47092 | 16975 ft | 393 kts | 282° |
| 2026-05-05 19:46 | 47.70515 | 9.43085 | 16975 ft | 388 kts | 262° |
| 2026-05-05 19:47 | 47.69875 | 9.39244 | 16981 ft | 382 kts | 248° |
| 2026-05-05 19:47 | 47.68607 | 9.35865 | 16962 ft | 368 kts | 232° |
| 2026-05-05 19:47 | 47.67015 | 9.33006 | 16963 ft | 350 kts | 230° |
| 2026-05-05 19:47 | 47.65475 | 9.30325 | 16953 ft | 333 kts | 230° |
| 2026-05-05 19:48 | 47.64020 | 9.27752 | 16953 ft | 316 kts | 230° |
| 2026-05-05 19:48 | 47.62654 | 9.25296 | 16953 ft | 301 kts | 231° |
| 2026-05-05 19:48 | 47.61363 | 9.22958 | 16957 ft | 288 kts | 230° |
| 2026-05-05 19:48 | 47.60088 | 9.20637 | 16971 ft | 291 kts | 232° |
| 2026-05-05 19:49 | 47.59142 | 9.18003 | 16974 ft | 292 kts | 252° |
| 2026-05-05 19:49 | 47.58850 | 9.16013 | 16982 ft | 293 kts | 258° |
| 2026-05-05 19:49 | 47.58394 | 9.12059 | 16974 ft | 295 kts | 258° |
| 2026-05-05 19:49 | 47.58037 | 9.09064 | 16985 ft | 295 kts | 258° |
| 2026-05-05 19:50 | 47.57672 | 9.06079 | 16971 ft | 291 kts | 257° |
| 2026-05-05 19:50 | 47.57339 | 9.03197 | 16941 ft | 275 kts | 263° |
| 2026-05-05 19:50 | 47.57545 | 9.00456 | 16967 ft | 265 kts | 285° |
| 2026-05-05 19:50 | 47.58349 | 8.98062 | 16975 ft | 268 kts | 302° |
| 2026-05-05 19:51 | 47.59638 | 8.96046 | 16970 ft | 274 kts | 320° |
| 2026-05-05 19:51 | 47.61345 | 8.94717 | 16975 ft | 282 kts | 340° |
| 2026-05-05 19:51 | 47.63283 | 8.94362 | 16965 ft | 289 kts | 3° |
| 2026-05-05 19:51 | 47.65226 | 8.95146 | 16963 ft | 294 kts | 27° |
| 2026-05-05 19:52 | 47.66835 | 8.97005 | 16976 ft | 295 kts | 50° |
| 2026-05-05 19:52 | 47.67947 | 8.99547 | 16976 ft | 295 kts | 71° |
| 2026-05-05 19:52 | 47.68444 | 9.02473 | 16987 ft | 293 kts | 82° |
| 2026-05-05 19:52 | 47.68799 | 9.05466 | 16979 ft | 296 kts | 82° |
| 2026-05-05 19:53 | 47.69166 | 9.08476 | 16984 ft | 298 kts | 82° |
| 2026-05-05 19:53 | 47.69549 | 9.11512 | 16979 ft | 300 kts | 82° |
| 2026-05-05 19:53 | 47.69693 | 9.14551 | 16958 ft | 293 kts | 103° |
| 2026-05-05 19:53 | 47.69040 | 9.17341 | 16977 ft | 283 kts | 126° |
| 2026-05-05 19:54 | 47.67788 | 9.19533 | 16982 ft | 276 kts | 146° |
| 2026-05-05 19:54 | 47.66163 | 9.20942 | 16982 ft | 268 kts | 165° |
| 2026-05-05 19:54 | 47.64358 | 9.21455 | 16977 ft | 262 kts | 184° |
| 2026-05-05 19:54 | 47.62585 | 9.21031 | 16968 ft | 257 kts | 202° |
| 2026-05-05 19:55 | 47.61037 | 9.19758 | 16969 ft | 255 kts | 220° |
| 2026-05-05 19:55 | 47.59781 | 9.17906 | 16983 ft | 255 kts | 231° |
| 2026-05-05 19:55 | 47.58899 | 9.15647 | 16909 ft | 255 kts | 252° |
| 2026-05-05 19:55 | 47.58547 | 9.13064 | 16678 ft | 256 kts | 258° |
| 2026-05-05 19:56 | 47.58236 | 9.10461 | 16431 ft | 257 kts | 257° |
| 2026-05-05 19:56 | 47.57910 | 9.07865 | 16177 ft | 256 kts | 257° |
| 2026-05-05 19:56 | 47.57585 | 9.05324 | 15912 ft | 254 kts | 257° |
| 2026-05-05 19:56 | 47.57313 | 9.02768 | 15635 ft | 250 kts | 268° |
| 2026-05-05 19:57 | 47.57681 | 9.00264 | 15370 ft | 252 kts | 292° |
| 2026-05-05 19:57 | 47.58299 | 8.98759 | 15209 ft | 254 kts | 305° |
| 2026-05-05 19:57 | 47.60152 | 8.96609 | 14878 ft | 264 kts | 333° |
| 2026-05-05 19:57 | 47.61972 | 8.96045 | 14652 ft | 275 kts | 358° |
| 2026-05-05 19:58 | 47.63858 | 8.96682 | 14413 ft | 285 kts | 25° |
| 2026-05-05 19:58 | 47.65392 | 8.98552 | 14166 ft | 289 kts | 54° |
| 2026-05-05 19:58 | 47.66233 | 9.01228 | 13931 ft | 286 kts | 79° |
| 2026-05-05 19:58 | 47.66608 | 9.04115 | 13714 ft | 285 kts | 81° |
| 2026-05-05 19:59 | 47.66963 | 9.07022 | 13465 ft | 287 kts | 81° |
| 2026-05-05 19:59 | 47.67329 | 9.09950 | 13213 ft | 289 kts | 81° |
| 2026-05-05 19:59 | 47.67702 | 9.12870 | 13046 ft | 286 kts | 81° |
| 2026-05-05 19:59 | 47.68066 | 9.15699 | 12984 ft | 280 kts | 81° |
| 2026-05-05 20:00 | 47.68205 | 9.18525 | 12963 ft | 273 kts | 104° |
| 2026-05-05 20:00 | 47.67533 | 9.21120 | 12988 ft | 269 kts | 130° |
| 2026-05-05 20:00 | 47.66225 | 9.23043 | 12984 ft | 262 kts | 154° |
| 2026-05-05 20:00 | 47.64570 | 9.24010 | 12978 ft | 252 kts | 177° |
| 2026-05-05 20:01 | 47.62866 | 9.23930 | 12966 ft | 243 kts | 199° |
| 2026-05-05 20:01 | 47.61354 | 9.22921 | 12974 ft | 237 kts | 219° |
| 2026-05-05 20:01 | 47.60161 | 9.21260 | 12957 ft | 236 kts | 232° |
| 2026-05-05 20:01 | 47.59347 | 9.19140 | 12684 ft | 240 kts | 252° |
| 2026-05-05 20:02 | 47.58985 | 9.16716 | 12460 ft | 241 kts | 258° |
| 2026-05-05 20:02 | 47.58705 | 9.14271 | 12197 ft | 240 kts | 259° |
| 2026-05-05 20:02 | 47.58688 | 9.11832 | 11897 ft | 239 kts | 281° |
| 2026-05-05 20:02 | 47.59320 | 9.09552 | 11663 ft | 239 kts | 292° |
| 2026-05-05 20:03 | 47.60076 | 9.07395 | 11390 ft | 233 kts | 293° |
| 2026-05-05 20:03 | 47.60823 | 9.05296 | 11134 ft | 227 kts | 293° |
| 2026-05-05 20:03 | 47.61550 | 9.03271 | 11026 ft | 218 kts | 293° |
| 2026-05-05 20:03 | 47.62268 | 9.01281 | 10986 ft | 220 kts | 293° |
| 2026-05-05 20:04 | 47.62998 | 8.99254 | 10993 ft | 227 kts | 293° |
| 2026-05-05 20:04 | 47.63746 | 8.97169 | 10988 ft | 230 kts | 293° |
| 2026-05-05 20:04 | 47.64497 | 8.95075 | 10985 ft | 229 kts | 293° |
| 2026-05-05 20:04 | 47.65161 | 8.92958 | 10963 ft | 220 kts | 277° |
| 2026-05-05 20:05 | 47.65231 | 8.90750 | 10993 ft | 216 kts | 264° |
| 2026-05-05 20:05 | 47.65150 | 8.88489 | 10990 ft | 222 kts | 264° |
| 2026-05-05 20:05 | 47.65059 | 8.86185 | 10999 ft | 225 kts | 264° |
| 2026-05-05 20:05 | 47.64966 | 8.83900 | 10982 ft | 224 kts | 263° |
| 2026-05-05 20:06 | 47.64882 | 8.81619 | 10997 ft | 218 kts | 263° |
| 2026-05-05 20:06 | 47.64813 | 8.79407 | 10982 ft | 212 kts | 263° |
| 2026-05-05 20:06 | 47.64747 | 8.77221 | 10983 ft | 212 kts | 263° |
| 2026-05-05 20:06 | 47.64680 | 8.75038 | 10983 ft | 212 kts | 263° |
| 2026-05-05 20:07 | 47.64612 | 8.72845 | 10989 ft | 213 kts | 263° |
| 2026-05-05 20:07 | 47.64544 | 8.70653 | 10908 ft | 213 kts | 263° |
| 2026-05-05 20:07 | 47.64500 | 8.69212 | 10709 ft | 210 kts | 263° |
| 2026-05-05 20:07 | 47.64414 | 8.66317 | 10148 ft | 211 kts | 263° |
| 2026-05-05 20:08 | 47.64372 | 8.64877 | 9905 ft | 211 kts | 263° |
| 2026-05-05 20:08 | 47.64307 | 8.62683 | 9625 ft | 213 kts | 262° |
| 2026-05-05 20:08 | 47.63931 | 8.60633 | 9394 ft | 206 kts | 234° |
| 2026-05-05 20:08 | 47.62833 | 8.59327 | 9169 ft | 208 kts | 201° |
| 2026-05-05 20:09 | 47.61390 | 8.59255 | 9082 ft | 216 kts | 168° |
| 2026-05-05 20:09 | 47.60088 | 8.60470 | 8893 ft | 231 kts | 136° |
| 2026-05-05 20:09 | 47.59341 | 8.62633 | 8529 ft | 244 kts | 109° |
| 2026-05-05 20:09 | 47.58997 | 8.65128 | 8276 ft | 248 kts | 104° |
| 2026-05-05 20:10 | 47.58635 | 8.67608 | 8080 ft | 246 kts | 111° |
| 2026-05-05 20:10 | 47.58126 | 8.70021 | 7897 ft | 245 kts | 113° |
| 2026-05-05 20:10 | 47.57607 | 8.72382 | 7745 ft | 244 kts | 113° |
| 2026-05-05 20:10 | 47.57077 | 8.74778 | 7551 ft | 245 kts | 113° |
| 2026-05-05 20:11 | 47.56544 | 8.77165 | 7410 ft | 242 kts | 115° |
| 2026-05-05 20:11 | 47.55799 | 8.79342 | 7176 ft | 236 kts | 130° |
| 2026-05-05 20:11 | 47.54839 | 8.81304 | 7006 ft | 234 kts | 132° |
| 2026-05-05 20:11 | 47.53843 | 8.83186 | 6893 ft | 231 kts | 133° |
| 2026-05-05 20:12 | 47.52858 | 8.85031 | 6538 ft | 229 kts | 133° |
| 2026-05-05 20:12 | 47.51858 | 8.86901 | 6098 ft | 232 kts | 133° |
| 2026-05-05 20:12 | 47.50858 | 8.88767 | 5702 ft | 231 kts | 133° |
| 2026-05-05 20:12 | 47.49782 | 8.90487 | 5301 ft | 224 kts | 153° |
| 2026-05-05 20:13 | 47.48390 | 8.91187 | 5053 ft | 208 kts | 181° |
| 2026-05-05 20:13 | 47.46951 | 8.91305 | 5044 ft | 204 kts | 183° |
| 2026-05-05 20:13 | 47.45555 | 8.91403 | 5053 ft | 199 kts | 186° |
| 2026-05-05 20:13 | 47.44272 | 8.90886 | 4992 ft | 186 kts | 221° |
| 2026-05-05 20:14 | 47.43614 | 8.89391 | 4988 ft | 172 kts | 262° |
| 2026-05-05 20:14 | 47.43608 | 8.87659 | 5002 ft | 167 kts | 270° |
| 2026-05-05 20:14 | 47.43650 | 8.85941 | 4996 ft | 167 kts | 272° |
| 2026-05-05 20:14 | 47.43738 | 8.84224 | 5002 ft | 169 kts | 273° |
| 2026-05-05 20:15 | 47.43850 | 8.82494 | 5002 ft | 169 kts | 274° |
| 2026-05-05 20:15 | 47.43971 | 8.80754 | 4931 ft | 172 kts | 274° |
| 2026-05-05 20:15 | 47.44096 | 8.79001 | 4676 ft | 169 kts | 275° |
| 2026-05-05 20:15 | 47.44217 | 8.77312 | 4430 ft | 166 kts | 274° |
| 2026-05-05 20:16 | 47.44341 | 8.75596 | 4200 ft | 169 kts | 272° |
| 2026-05-05 20:16 | 47.44460 | 8.73891 | 3964 ft | 164 kts | 272° |
| 2026-05-05 20:16 | 47.44579 | 8.72215 | 3691 ft | 164 kts | 273° |
| 2026-05-05 20:16 | 47.44700 | 8.70517 | 3476 ft | 168 kts | 273° |
| 2026-05-05 20:17 | 47.44824 | 8.68784 | 3229 ft | 168 kts | 273° |
| 2026-05-05 20:17 | 47.44946 | 8.67075 | 2953 ft | 166 kts | 273° |
| 2026-05-05 20:17 | 47.45067 | 8.65367 | 2721 ft | 168 kts | 273° |
| 2026-05-05 20:17 | 47.45188 | 8.63638 | 2454 ft | 171 kts | 273° |
| 2026-05-05 20:18 | 47.45316 | 8.61904 | 2213 ft | 168 kts | 274° |
| 2026-05-05 20:18 | 47.45432 | 8.60260 | 1904 ft | 151 kts | 275° |
| 2026-05-05 20:18 | 47.45534 | 8.58808 | 1650 ft | 136 kts | 274° |
| 2026-05-05 20:18 | 47.45636 | 8.57418 | 1502 ft | 138 kts | 273° |
| 2026-05-05 20:19 | 47.45727 | 8.56019 | 1406 ft | 129 kts | 275° |
| 2026-05-05 20:19 | 47.45784 | 8.55241 | 1404 ft | 33 kts | 274° |
| 2026-05-05 20:19 | 47.45787 | 8.55099 | 1409 ft | 6 kts | 199° |
| 2026-05-05 20:19 | 47.45739 | 8.55138 | 1408 ft | 13 kts | 155° |
| 2026-05-05 20:20 | 47.45713 | 8.55156 | 1410 ft | 0 kts | 155° |
| 2026-05-05 20:22 | 47.45708 | 8.55160 | 1410 ft | 6 kts | 155° |
| 2026-05-05 20:22 | 47.45602 | 8.55235 | 1410 ft | 21 kts | 157° |
| 2026-05-05 20:23 | 47.45471 | 8.55327 | 1410 ft | 21 kts | 150° |
| 2026-05-05 20:23 | 47.45338 | 8.55413 | 1410 ft | 21 kts | 157° |
| 2026-05-05 20:23 | 47.45256 | 8.55466 | 1411 ft | 3 kts | 153° |
| 2026-05-05 20:23 | 47.45235 | 8.55482 | 1411 ft | 4 kts | 153° |
| 2026-05-05 20:24 | 47.45204 | 8.55505 | 1411 ft | 8 kts | 154° |
| 2026-05-05 20:24 | 47.45112 | 8.55567 | 1405 ft | 21 kts | 155° |
| 2026-05-05 20:24 | 47.44968 | 8.55686 | 1411 ft | 14 kts | 124° |
| 2026-05-05 20:24 | 47.44959 | 8.55827 | 1410 ft | 9 kts | 69° |
| 2026-05-05 20:25 | 47.44989 | 8.55856 | 1406 ft | 7 kts | 3° |
| 2026-05-05 20:25 | 47.45030 | 8.55856 | 1408 ft | 0 kts | 5° |
| 2026-05-05 20:25 | 47.45034 | 8.55857 | 1408 ft | 0 kts | 5° |
| 2026-05-05 20:27 | 47.45038 | 8.55857 | 1408 ft | 0 kts | 6° |